createdAt,value
2023-03-17T00:01:54.105Z,9.57
2023-03-17T00:04:23.968Z,8.48
2023-03-17T00:06:50.799Z,8.57
2023-03-17T00:09:19.054Z,9.07
2023-03-17T00:11:46.929Z,8.75
2023-03-17T00:14:14.195Z,8.50
2023-03-17T00:16:51.939Z,8.23
2023-03-17T00:19:32.997Z,8.93
2023-03-17T00:22:00.879Z,9.43
2023-03-17T00:24:28.665Z,9.02
2023-03-17T00:26:55.480Z,9.02
2023-03-17T00:29:22.172Z,8.57
2023-03-17T00:31:50.672Z,8.77
2023-03-17T00:34:18.940Z,8.43
2023-03-17T00:36:48.365Z,7.43
2023-03-17T00:41:42.526Z,7.57
2023-03-17T00:44:09.704Z,8.68
2023-03-17T00:46:38.112Z,8.48
2023-03-17T00:49:25.674Z,8.77
2023-03-17T00:51:53.036Z,7.90
2023-03-17T00:54:20.761Z,8.90
2023-03-17T00:56:49.307Z,6.45
2023-03-17T00:59:26.227Z,5.93
2023-03-17T01:01:53.532Z,6.13
2023-03-17T01:04:20.362Z,5.63
2023-03-17T01:06:48.100Z,6.40
2023-03-17T01:09:18.341Z,7.85
2023-03-17T01:11:45.258Z,8.18
2023-03-17T01:14:13.100Z,8.10
2023-03-17T01:16:40.730Z,8.18
2023-03-17T01:19:08.001Z,7.00
2023-03-17T01:21:34.687Z,7.60
2023-03-17T01:24:01.569Z,7.97
2023-03-17T01:26:28.513Z,7.57
2023-03-17T01:28:55.490Z,7.75
2023-03-17T01:31:23.403Z,8.95
2023-03-17T01:33:51.249Z,8.48
2023-03-17T01:36:18.190Z,8.52
2023-03-17T01:38:47.974Z,8.68
2023-03-17T01:41:14.800Z,7.93
2023-03-17T01:43:41.667Z,9.60
2023-03-17T01:46:30.035Z,9.27
2023-03-17T01:48:59.712Z,8.95
2023-03-17T01:51:35.751Z,9.88
2023-03-17T01:56:31.755Z,8.95
2023-03-17T01:59:01.118Z,9.23
2023-03-17T02:01:33.586Z,7.38
2023-03-17T02:04:01.064Z,7.50
2023-03-17T02:06:28.351Z,7.47
2023-03-17T02:08:55.526Z,7.65
2023-03-17T02:11:22.488Z,8.00
2023-03-17T02:13:49.472Z,9.18
2023-03-17T02:16:17.636Z,9.40
2023-03-17T02:18:44.997Z,8.50
2023-03-17T02:21:38.261Z,8.13
2023-03-17T02:24:30.737Z,8.30
2023-03-17T02:27:03.469Z,8.75
2023-03-17T02:29:33.953Z,9.15
2023-03-17T02:32:01.145Z,8.43
2023-03-17T02:34:27.932Z,7.53
2023-03-17T02:36:54.641Z,7.40
2023-03-17T02:39:21.474Z,8.23
2023-03-17T02:41:48.268Z,8.02
2023-03-17T02:44:14.944Z,7.97
2023-03-17T02:46:41.678Z,6.95
2023-03-17T02:49:08.918Z,7.07
2023-03-17T02:51:35.666Z,6.25
2023-03-17T02:54:02.307Z,6.20
2023-03-17T02:56:29.159Z,6.10
2023-03-17T02:58:56.021Z,6.53
2023-03-17T03:01:22.868Z,5.85
2023-03-17T03:03:49.828Z,5.85
2023-03-17T03:06:16.859Z,7.78
2023-03-17T03:08:43.599Z,6.97
2023-03-17T03:11:10.636Z,7.05
2023-03-17T03:13:37.643Z,6.45
2023-03-17T03:16:04.693Z,6.30
2023-03-17T03:18:32.741Z,6.72
2023-03-17T03:20:59.411Z,7.50
2023-03-17T03:23:26.339Z,8.18
2023-03-17T03:25:53.098Z,8.07
2023-03-17T03:28:19.788Z,6.38
2023-03-17T03:30:46.737Z,6.65
2023-03-17T03:33:14.916Z,5.95
2023-03-17T03:35:42.989Z,7.25
2023-03-17T03:38:10.149Z,7.15
2023-03-17T03:40:37.514Z,7.65
2023-03-17T03:43:16.300Z,6.93
2023-03-17T03:45:49.157Z,6.90
2023-03-17T03:48:16.156Z,6.22
2023-03-17T03:50:42.868Z,6.53
2023-03-17T03:53:09.910Z,6.50
2023-03-17T03:55:37.063Z,6.30
2023-03-17T03:58:03.761Z,7.13
2023-03-17T04:00:30.701Z,7.32
2023-03-17T04:02:57.582Z,8.05
2023-03-17T04:05:24.453Z,8.18
2023-03-17T04:07:51.405Z,6.53
2023-03-17T04:10:18.210Z,8.00
2023-03-17T04:12:46.269Z,6.20
2023-03-17T04:15:16.378Z,6.40
2023-03-17T04:17:43.638Z,6.97
2023-03-17T04:20:13.075Z,5.88
2023-03-17T04:22:41.656Z,6.88
2023-03-17T04:25:10.239Z,6.82
2023-03-17T04:27:37.450Z,6.38
2023-03-17T04:30:05.380Z,6.70
2023-03-17T04:32:32.201Z,6.00
2023-03-17T04:34:59.031Z,5.20
2023-03-17T04:37:26.140Z,5.28
2023-03-17T04:39:53.157Z,5.35
2023-03-17T04:42:19.922Z,5.25
2023-03-17T04:44:47.002Z,5.78
2023-03-17T04:47:13.694Z,5.90
2023-03-17T04:49:40.402Z,6.03
2023-03-17T04:52:07.805Z,6.00
2023-03-17T04:54:34.501Z,5.60
2023-03-17T04:57:01.168Z,6.05
2023-03-17T04:59:27.815Z,5.88
2023-03-17T05:01:54.520Z,5.90
2023-03-17T05:04:31.161Z,5.32
2023-03-17T05:06:58.737Z,6.47
2023-03-17T05:09:26.864Z,5.78
2023-03-17T05:11:53.914Z,6.07
2023-03-17T05:14:20.975Z,6.03
2023-03-17T05:16:48.467Z,6.53
2023-03-17T05:19:16.555Z,7.32
2023-03-17T05:21:43.735Z,7.25
2023-03-17T05:24:10.592Z,8.80
2023-03-17T05:26:37.606Z,9.00
2023-03-17T05:29:04.583Z,8.02
2023-03-17T05:31:31.939Z,8.32
2023-03-17T05:33:58.944Z,8.18
2023-03-17T05:36:25.823Z,7.50
2023-03-17T05:38:52.655Z,7.07
2023-03-17T05:41:19.703Z,6.10
2023-03-17T05:43:46.772Z,5.40
2023-03-17T05:46:13.713Z,5.40
2023-03-17T05:48:40.738Z,5.47
2023-03-17T05:51:07.585Z,4.50
2023-03-17T05:53:35.880Z,5.72
2023-03-17T05:56:03.057Z,4.82
2023-03-17T05:58:29.933Z,5.30
2023-03-17T06:00:56.967Z,5.15
2023-03-17T06:03:23.673Z,4.78
2023-03-17T06:05:50.394Z,5.22
2023-03-17T06:08:17.231Z,5.47
2023-03-17T06:10:43.910Z,5.45
2023-03-17T06:13:11.616Z,5.65
2023-03-17T06:15:38.399Z,7.93
2023-03-17T06:18:05.652Z,6.82
2023-03-17T06:20:33.421Z,6.15
2023-03-17T06:23:04.889Z,10.70
2023-03-17T06:25:34.144Z,6.28
2023-03-17T06:28:03.584Z,5.35
2023-03-17T06:30:34.422Z,6.75
2023-03-17T06:33:02.416Z,5.85
2023-03-17T06:35:30.456Z,6.10
2023-03-17T06:37:57.939Z,5.82
2023-03-17T06:40:24.658Z,5.72
2023-03-17T06:42:51.565Z,5.75
2023-03-17T06:45:18.407Z,5.25
2023-03-17T06:47:45.151Z,6.53
2023-03-17T06:50:12.724Z,5.70
2023-03-17T06:52:39.913Z,5.55
2023-03-17T06:55:08.642Z,5.00
2023-03-17T06:57:36.346Z,4.78
2023-03-17T07:00:06.323Z,5.75
2023-03-17T07:02:33.661Z,7.75
2023-03-17T07:05:00.815Z,7.97
2023-03-17T07:07:28.049Z,8.40
2023-03-17T07:09:54.745Z,8.15
2023-03-17T07:12:21.824Z,7.25
2023-03-17T07:14:48.634Z,7.07
2023-03-17T07:17:15.339Z,7.55
2023-03-17T07:19:42.671Z,6.50
2023-03-17T07:22:12.288Z,8.57
2023-03-17T07:24:39.717Z,8.70
2023-03-17T07:27:06.990Z,10.00
2023-03-17T07:29:34.503Z,10.98
2023-03-17T07:32:02.307Z,9.18
2023-03-17T07:34:28.973Z,7.93
2023-03-17T07:36:55.686Z,7.13
2023-03-17T07:39:22.398Z,6.50
2023-03-17T07:41:52.874Z,5.15
2023-03-17T07:44:19.766Z,6.10
2023-03-17T07:46:46.745Z,4.18
2023-03-17T07:49:13.984Z,3.10
2023-03-17T07:51:43.167Z,2.25
2023-03-17T07:54:14.827Z,2.80
2023-03-17T07:56:42.513Z,3.53
2023-03-17T07:59:10.798Z,3.10
2023-03-17T08:01:38.301Z,4.70
2023-03-17T08:04:05.553Z,6.35
2023-03-17T08:06:32.540Z,11.93
2023-03-17T08:08:59.251Z,7.50
2023-03-17T08:11:28.317Z,3.10
2023-03-17T08:13:56.063Z,4.05
2023-03-17T08:16:23.021Z,2.90
2023-03-17T08:18:49.900Z,2.53
2023-03-17T08:21:16.761Z,4.05
2023-03-17T08:23:43.659Z,3.03
2023-03-17T08:26:10.505Z,2.25
2023-03-17T08:28:37.480Z,2.30
2023-03-17T08:31:13.558Z,2.10
2023-03-17T08:33:42.123Z,2.13
2023-03-17T08:36:10.253Z,2.67
2023-03-17T08:38:38.547Z,2.83
2023-03-17T08:41:08.663Z,2.67
2023-03-17T08:43:37.303Z,1.77
2023-03-17T08:46:07.388Z,1.73
2023-03-17T08:48:36.479Z,1.80
2023-03-17T08:51:04.779Z,1.95
2023-03-17T08:53:32.626Z,2.30
2023-03-17T08:55:59.291Z,3.17
2023-03-17T08:58:26.193Z,2.35
2023-03-17T09:00:53.884Z,1.85
2023-03-17T09:03:21.673Z,1.58
2023-03-17T09:05:48.763Z,1.88
2023-03-17T09:08:15.574Z,1.50
2023-03-17T09:10:44.380Z,1.45
2023-03-17T09:13:11.620Z,1.42
2023-03-17T09:15:38.810Z,1.58
2023-03-17T09:18:06.537Z,1.10
2023-03-17T09:20:33.689Z,2.00
2023-03-17T09:23:00.726Z,1.77
2023-03-17T09:25:27.591Z,1.45
2023-03-17T09:27:54.965Z,2.08
2023-03-17T09:30:21.841Z,1.65
2023-03-17T09:32:49.108Z,3.00
2023-03-17T09:35:15.794Z,3.45
2023-03-17T09:37:42.677Z,5.85
2023-03-17T09:40:17.098Z,1.40
2023-03-17T09:42:47.526Z,2.35
2023-03-17T09:45:28.109Z,2.65
2023-03-17T09:47:57.590Z,2.03
2023-03-17T09:50:32.703Z,1.55
2023-03-17T09:53:03.453Z,1.52
2023-03-17T09:55:32.746Z,1.42
2023-03-17T09:58:00.790Z,1.95
2023-03-17T10:00:30.979Z,1.38
2023-03-17T10:02:58.796Z,2.10
2023-03-17T10:05:31.853Z,1.50
2023-03-17T10:08:29.673Z,1.60
2023-03-17T10:11:19.292Z,1.50
2023-03-17T10:14:08.362Z,1.35
2023-03-17T10:16:46.307Z,1.60
2023-03-17T10:19:39.528Z,1.98
2023-03-17T10:22:16.846Z,2.42
2023-03-17T10:24:48.404Z,11.80
2023-03-17T10:27:16.742Z,3.58
2023-03-17T10:29:43.858Z,2.10
2023-03-17T10:32:13.317Z,2.15
2023-03-17T10:34:41.564Z,1.67
2023-03-17T10:37:12.214Z,3.03
2023-03-17T10:39:49.257Z,1.48
2023-03-17T10:42:27.106Z,1.63
2023-03-17T10:45:04.897Z,2.17
2023-03-17T10:47:31.747Z,1.27
2023-03-17T10:50:04.176Z,1.80
2023-03-17T10:52:35.821Z,2.65
2023-03-17T10:55:06.595Z,2.40
2023-03-17T10:57:37.502Z,2.00
2023-03-17T11:00:14.820Z,1.60
2023-03-17T11:02:56.250Z,1.20
2023-03-17T11:05:29.915Z,1.52
2023-03-17T11:08:17.779Z,2.45
2023-03-17T11:10:44.941Z,3.13
2023-03-17T11:13:17.093Z,1.65
2023-03-17T11:16:01.381Z,2.03
2023-03-17T11:18:39.519Z,1.55
2023-03-17T11:21:10.376Z,1.60
2023-03-17T11:23:42.897Z,1.77
2023-03-17T11:26:36.150Z,4.22
2023-03-17T11:29:24.475Z,1.40
2023-03-17T11:32:18.788Z,2.75
2023-03-17T11:35:07.421Z,3.30
2023-03-17T11:37:43.642Z,1.55
2023-03-17T11:40:29.396Z,1.58
2023-03-17T11:43:20.413Z,1.50
2023-03-17T11:45:56.253Z,1.23
2023-03-17T11:48:35.944Z,1.77
2023-03-17T11:51:27.603Z,2.38
2023-03-17T11:54:02.939Z,1.67
2023-03-17T11:56:40.739Z,1.95
2023-03-17T11:59:19.800Z,1.40
2023-03-17T12:02:24.666Z,1.63
2023-03-17T12:05:06.162Z,1.52
2023-03-17T12:07:38.720Z,1.27
2023-03-17T12:10:28.859Z,1.38
2023-03-17T12:13:02.430Z,1.70
2023-03-17T12:15:55.981Z,2.00
2023-03-17T12:18:30.789Z,1.10
2023-03-17T12:20:59.838Z,1.20
2023-03-17T12:23:58.496Z,1.02
2023-03-17T12:26:35.288Z,0.90
2023-03-17T12:29:13.880Z,1.35
2023-03-17T12:31:55.816Z,1.23
2023-03-17T12:34:57.421Z,0.90
2023-03-17T12:37:27.625Z,1.10
2023-03-17T12:40:18.743Z,1.13
2023-03-17T12:43:24.011Z,1.38
2023-03-17T12:46:02.955Z,1.35
2023-03-17T12:48:47.149Z,1.73
2023-03-17T12:51:32.163Z,1.00
2023-03-17T12:54:00.190Z,1.40
2023-03-17T12:56:34.443Z,1.00
2023-03-17T12:59:13.428Z,1.30
2023-03-17T13:01:45.802Z,1.30
2023-03-17T13:04:26.498Z,1.08
2023-03-17T13:07:14.199Z,1.15
2023-03-17T13:09:48.294Z,1.05
2023-03-17T13:12:47.388Z,1.10
2023-03-17T13:15:23.408Z,1.10
2023-03-17T13:20:35.649Z,0.90
2023-03-17T13:23:11.676Z,1.15
2023-03-17T13:28:13.753Z,1.30
2023-03-17T13:30:40.406Z,1.20
2023-03-17T13:33:09.935Z,1.30
2023-03-17T13:35:54.144Z,1.40
2023-03-17T13:38:40.994Z,0.82
2023-03-17T13:41:31.926Z,1.33
2023-03-17T13:44:10.125Z,0.88
2023-03-17T13:46:37.533Z,1.20
2023-03-17T13:49:29.083Z,1.23
2023-03-17T13:52:16.159Z,1.00
2023-03-17T13:54:49.626Z,1.00
2023-03-17T13:57:37.218Z,2.17
2023-03-17T14:00:27.766Z,1.20
2023-03-17T14:03:28.862Z,1.10
2023-03-17T14:05:56.329Z,1.02
2023-03-17T14:08:35.545Z,1.23
2023-03-17T14:11:08.853Z,0.90
2023-03-17T14:13:50.878Z,1.17
2023-03-17T14:16:34.872Z,1.02
2023-03-17T14:19:16.836Z,1.17
2023-03-17T14:21:43.578Z,1.20
2023-03-17T14:24:25.248Z,0.80
2023-03-17T14:26:52.757Z,1.77
2023-03-17T14:29:24.413Z,0.80
2023-03-17T14:32:00.362Z,3.83
2023-03-17T14:34:27.009Z,1.70
2023-03-17T14:36:53.653Z,1.77
2023-03-17T14:39:25.718Z,1.20
2023-03-17T14:42:01.700Z,0.90
2023-03-17T14:44:36.150Z,1.20
2023-03-17T14:47:05.366Z,0.98
2023-03-17T14:49:33.364Z,1.38
2023-03-17T14:52:00.540Z,0.95
2023-03-17T14:54:31.833Z,1.15
2023-03-17T14:57:05.823Z,1.00
2023-03-17T14:59:39.759Z,1.45
2023-03-17T15:02:30.641Z,1.90
2023-03-17T15:05:02.150Z,1.10
2023-03-17T15:07:39.265Z,1.90
2023-03-17T15:10:14.019Z,7.28
2023-03-17T15:12:41.276Z,3.13
2023-03-17T15:15:26.402Z,1.90
2023-03-17T15:17:57.492Z,1.75
2023-03-17T15:20:25.265Z,1.45
2023-03-17T15:23:00.420Z,1.95
2023-03-17T15:25:55.639Z,1.20
2023-03-17T15:28:31.116Z,1.15
2023-03-17T15:31:12.110Z,0.73
2023-03-17T15:33:41.220Z,1.08
2023-03-17T15:36:29.257Z,1.35
2023-03-17T15:38:56.328Z,1.10
2023-03-17T15:41:23.077Z,1.10
2023-03-17T15:43:49.736Z,1.05
2023-03-17T15:46:27.416Z,0.93
2023-03-17T15:48:54.636Z,1.10
2023-03-17T15:51:21.964Z,1.02
2023-03-17T15:53:48.805Z,1.10
2023-03-17T15:56:18.897Z,0.98
2023-03-17T15:58:49.265Z,0.98
2023-03-17T16:01:16.613Z,0.80
2023-03-17T16:03:45.389Z,1.00
2023-03-17T16:06:16.808Z,1.30
2023-03-17T16:08:45.219Z,1.23
2023-03-17T16:11:20.408Z,1.30
2023-03-17T16:13:47.703Z,1.40
2023-03-17T16:16:38.276Z,1.20
2023-03-17T16:19:07.010Z,1.73
2023-03-17T16:21:33.908Z,1.90
2023-03-17T16:24:00.768Z,1.85
2023-03-17T16:26:27.465Z,2.28
2023-03-17T16:28:54.254Z,1.70
2023-03-17T16:31:31.510Z,2.33
2023-03-17T16:33:58.355Z,2.50
2023-03-17T16:36:25.966Z,2.40
2023-03-17T16:38:52.933Z,1.80
2023-03-17T16:41:29.490Z,1.60
2023-03-17T16:44:03.269Z,1.88
2023-03-17T16:46:35.196Z,51.33
2023-03-17T16:49:03.933Z,37.63
2023-03-17T16:51:30.604Z,6.93
2023-03-17T16:53:57.300Z,6.57
2023-03-17T16:56:27.057Z,10.35
2023-03-17T16:58:53.813Z,6.50
2023-03-17T17:01:23.409Z,4.63
2023-03-17T17:03:50.353Z,5.05
2023-03-17T17:06:19.093Z,3.38
2023-03-17T17:08:47.068Z,3.08
2023-03-17T17:11:15.900Z,4.88
2023-03-17T17:13:44.741Z,3.33
2023-03-17T17:16:28.522Z,2.90
2023-03-17T17:18:56.322Z,2.88
2023-03-17T17:21:23.171Z,6.88
2023-03-17T17:23:51.609Z,4.53
2023-03-17T17:26:19.879Z,4.38
2023-03-17T17:28:46.626Z,8.27
2023-03-17T17:31:13.295Z,5.30
2023-03-17T17:33:40.225Z,8.38
2023-03-17T17:36:12.696Z,7.53
2023-03-17T17:38:39.657Z,4.25
2023-03-17T17:41:08.876Z,6.38
2023-03-17T17:43:35.907Z,3.58
2023-03-17T17:46:02.759Z,4.10
2023-03-17T17:48:29.739Z,5.10
2023-03-17T17:50:57.723Z,5.15
2023-03-17T17:53:24.693Z,3.67
2023-03-17T17:55:51.761Z,4.78
2023-03-17T17:58:22.817Z,5.72
2023-03-17T18:00:50.844Z,5.13
2023-03-17T18:03:22.095Z,6.10
2023-03-17T18:05:48.785Z,6.43
2023-03-17T18:08:15.551Z,7.88
2023-03-17T18:10:42.375Z,7.47
2023-03-17T18:13:09.544Z,6.70
2023-03-17T18:15:36.239Z,4.35
2023-03-17T18:18:03.040Z,3.95
2023-03-17T18:20:30.385Z,4.90
2023-03-17T18:22:57.701Z,3.70
2023-03-17T18:25:27.062Z,3.97
2023-03-17T18:27:54.832Z,4.78
2023-03-17T18:30:27.721Z,6.07
2023-03-17T18:32:59.291Z,4.20
2023-03-17T18:35:27.505Z,4.35
2023-03-17T18:37:57.342Z,3.97
2023-03-17T18:40:24.972Z,3.92
2023-03-17T18:42:51.747Z,3.20
2023-03-17T18:45:18.612Z,3.60
2023-03-17T18:47:45.281Z,3.92
2023-03-17T18:50:14.070Z,4.05
2023-03-17T18:52:43.745Z,5.20
2023-03-17T18:55:12.124Z,4.18
2023-03-17T18:57:39.269Z,4.07
2023-03-17T19:00:10.693Z,4.75
2023-03-17T19:02:38.073Z,4.35
2023-03-17T19:05:06.107Z,4.10
2023-03-17T19:07:33.279Z,3.30
2023-03-17T19:10:00.207Z,3.10
2023-03-17T19:12:26.919Z,2.83
2023-03-17T19:14:53.665Z,3.58
2023-03-17T19:17:20.377Z,4.13
2023-03-17T19:19:47.210Z,3.40
2023-03-17T19:22:14.150Z,3.25
2023-03-17T19:24:41.182Z,4.50
2023-03-17T19:27:08.416Z,4.65
2023-03-17T19:29:35.238Z,4.35
2023-03-17T19:32:02.387Z,4.78
2023-03-17T19:34:29.149Z,5.45
2023-03-17T19:36:55.984Z,4.82
2023-03-17T19:39:23.045Z,4.90
2023-03-17T19:41:53.104Z,4.88
2023-03-17T19:44:19.764Z,4.25
2023-03-17T19:46:46.511Z,4.60
2023-03-17T19:49:13.209Z,4.25
2023-03-17T19:51:41.724Z,4.68
2023-03-17T19:54:10.030Z,4.65
2023-03-17T19:56:38.422Z,3.72
2023-03-17T19:59:08.953Z,4.28
2023-03-17T20:01:37.845Z,4.25
2023-03-17T20:04:06.707Z,4.80
2023-03-17T20:06:34.597Z,4.78
2023-03-17T20:09:03.975Z,4.60
2023-03-17T20:11:33.789Z,4.95
2023-03-17T20:14:01.443Z,5.85
2023-03-17T20:16:30.257Z,5.38
2023-03-17T20:18:56.931Z,4.65
2023-03-17T20:21:23.673Z,4.70
2023-03-17T20:23:50.404Z,4.45
2023-03-17T20:26:17.664Z,4.68
2023-03-17T20:28:44.437Z,5.60
2023-03-17T20:31:11.612Z,4.70
2023-03-17T20:33:38.672Z,3.88
2023-03-17T20:36:06.201Z,3.72
2023-03-17T20:38:36.749Z,6.93
2023-03-17T20:41:08.661Z,5.30
2023-03-17T20:43:37.275Z,2.88
2023-03-17T20:46:08.566Z,2.90
2023-03-17T20:48:37.112Z,2.78
2023-03-17T20:51:06.284Z,3.33
2023-03-17T20:53:34.255Z,2.92
2023-03-17T20:56:01.004Z,4.03
2023-03-17T20:58:27.844Z,2.95
2023-03-17T21:00:56.196Z,3.13
2023-03-17T21:03:22.899Z,3.25
2023-03-17T21:05:50.432Z,3.25
2023-03-17T21:08:17.332Z,3.13
2023-03-17T21:10:44.614Z,3.78
2023-03-17T21:13:11.789Z,2.97
2023-03-17T21:15:38.490Z,3.58
2023-03-17T21:18:05.813Z,4.05
2023-03-17T21:20:32.826Z,5.18
2023-03-17T21:23:00.338Z,4.32
2023-03-17T21:25:27.010Z,2.90
2023-03-17T21:27:53.916Z,2.97
2023-03-17T21:30:21.425Z,3.22
2023-03-17T21:32:48.109Z,3.28
2023-03-17T21:35:14.797Z,5.50
2023-03-17T21:37:41.612Z,4.45
2023-03-17T21:40:11.429Z,5.30
2023-03-17T21:42:38.113Z,5.93
2023-03-17T21:45:05.349Z,4.90
2023-03-17T21:47:32.055Z,5.38
2023-03-17T21:49:58.831Z,3.80
2023-03-17T21:52:26.043Z,3.95
2023-03-17T21:54:53.394Z,3.60
2023-03-17T21:57:20.166Z,3.80
2023-03-17T21:59:47.477Z,4.05
2023-03-17T22:02:17.452Z,4.07
2023-03-17T22:04:46.632Z,3.65
2023-03-17T22:07:13.729Z,3.60
2023-03-17T22:09:41.750Z,4.60
2023-03-17T22:12:08.763Z,6.30
2023-03-17T22:14:36.008Z,4.68
2023-03-17T22:17:05.287Z,3.65
2023-03-17T22:19:32.274Z,3.83
2023-03-17T22:21:59.113Z,4.82
2023-03-17T22:24:25.901Z,4.25
2023-03-17T22:26:52.658Z,3.83
2023-03-17T22:29:19.867Z,4.53
2023-03-17T22:31:47.054Z,4.70
2023-03-17T22:34:13.937Z,5.78
2023-03-17T22:36:41.126Z,4.88
2023-03-17T22:39:10.859Z,4.93
2023-03-17T22:41:38.582Z,4.28
2023-03-17T22:44:09.965Z,3.45
2023-03-17T22:46:38.568Z,3.90
2023-03-17T22:49:05.920Z,5.22
2023-03-17T22:51:32.595Z,7.90
2023-03-17T22:53:59.231Z,6.32
2023-03-17T22:56:26.478Z,5.60
2023-03-17T22:58:54.130Z,5.10
2023-03-17T23:01:22.377Z,3.67
2023-03-17T23:03:50.133Z,3.83
2023-03-17T23:06:17.705Z,3.60
2023-03-17T23:08:45.843Z,5.20
2023-03-17T23:11:18.177Z,4.85
2023-03-17T23:13:47.277Z,3.42
2023-03-17T23:16:14.922Z,3.80
2023-03-17T23:18:44.064Z,3.78
2023-03-17T23:21:39.018Z,4.07
2023-03-17T23:24:07.868Z,3.50
2023-03-17T23:26:37.936Z,3.30
2023-03-17T23:29:07.054Z,3.55
2023-03-17T23:31:34.260Z,3.05
2023-03-17T23:34:01.380Z,2.95
2023-03-17T23:36:28.312Z,3.20
2023-03-17T23:38:55.465Z,3.10
2023-03-17T23:41:22.666Z,3.42
2023-03-17T23:43:49.725Z,3.22
2023-03-17T23:46:17.235Z,3.42
2023-03-17T23:48:44.708Z,3.90
2023-03-17T23:51:12.692Z,4.05
2023-03-17T23:53:39.678Z,3.47
2023-03-17T23:56:08.012Z,3.70
2023-03-17T23:58:34.663Z,3.60
